sensor_id;sensor_type;location;lat;lon;timestamp;P1;durP1;ratioP1;P2;durP2;ratioP2
62610;SDS011;48683;48.084;17.272;2023-05-07T00:01:48;13.07;;;11.88;;
62610;SDS011;48683;48.084;17.272;2023-05-07T00:04:14;11.27;;;10.17;;
62610;SDS011;48683;48.084;17.272;2023-05-07T00:06:39;12.37;;;11.17;;
62610;SDS011;48683;48.084;17.272;2023-05-07T00:09:05;13.52;;;12.23;;
62610;SDS011;48683;48.084;17.272;2023-05-07T00:11:31;12.38;;;11.10;;
62610;SDS011;48683;48.084;17.272;2023-05-07T00:13:56;11.15;;;10.10;;
62610;SDS011;48683;48.084;17.272;2023-05-07T00:16:22;10.70;;;9.77;;
62610;SDS011;48683;48.084;17.272;2023-05-07T00:18:47;12.20;;;8.75;;
62610;SDS011;48683;48.084;17.272;2023-05-07T00:21:13;8.90;;;7.47;;
62610;SDS011;48683;48.084;17.272;2023-05-07T00:23:38;9.52;;;7.18;;
62610;SDS011;48683;48.084;17.272;2023-05-07T00:26:03;7.72;;;6.93;;
62610;SDS011;48683;48.084;17.272;2023-05-07T00:28:29;7.82;;;6.88;;
62610;SDS011;48683;48.084;17.272;2023-05-07T00:30:54;9.55;;;8.23;;
62610;SDS011;48683;48.084;17.272;2023-05-07T00:33:20;8.18;;;7.32;;
62610;SDS011;48683;48.084;17.272;2023-05-07T00:35:45;9.02;;;8.23;;
62610;SDS011;48683;48.084;17.272;2023-05-07T00:38:11;10.65;;;7.97;;
62610;SDS011;48683;48.084;17.272;2023-05-07T00:40:36;7.38;;;6.63;;
62610;SDS011;48683;48.084;17.272;2023-05-07T00:43:02;8.85;;;8.05;;
62610;SDS011;48683;48.084;17.272;2023-05-07T00:45:28;9.93;;;8.88;;
62610;SDS011;48683;48.084;17.272;2023-05-07T00:47:57;7.67;;;6.97;;
62610;SDS011;48683;48.084;17.272;2023-05-07T00:50:25;9.50;;;7.05;;
62610;SDS011;48683;48.084;17.272;2023-05-07T00:55:16;9.60;;;8.63;;
62610;SDS011;48683;48.084;17.272;2023-05-07T00:57:42;9.90;;;8.90;;
62610;SDS011;48683;48.084;17.272;2023-05-07T01:02:54;9.90;;;8.90;;
62610;SDS011;48683;48.084;17.272;2023-05-07T01:05:20;13.20;;;8.85;;
62610;SDS011;48683;48.084;17.272;2023-05-07T01:07:47;10.55;;;9.45;;
62610;SDS011;48683;48.084;17.272;2023-05-07T01:10:13;10.13;;;9.20;;
62610;SDS011;48683;48.084;17.272;2023-05-07T01:12:39;13.07;;;9.27;;
62610;SDS011;48683;48.084;17.272;2023-05-07T01:15:06;10.07;;;9.10;;
62610;SDS011;48683;48.084;17.272;2023-05-07T01:17:33;9.85;;;8.23;;
62610;SDS011;48683;48.084;17.272;2023-05-07T01:20:03;9.48;;;7.25;;
62610;SDS011;48683;48.084;17.272;2023-05-07T01:22:31;10.13;;;8.45;;
62610;SDS011;48683;48.084;17.272;2023-05-07T01:24:58;8.88;;;8.07;;
62610;SDS011;48683;48.084;17.272;2023-05-07T01:27:24;12.15;;;8.70;;
62610;SDS011;48683;48.084;17.272;2023-05-07T01:29:50;11.48;;;8.52;;
62610;SDS011;48683;48.084;17.272;2023-05-07T01:32:16;10.68;;;9.25;;
62610;SDS011;48683;48.084;17.272;2023-05-07T01:34:53;10.35;;;8.52;;
62610;SDS011;48683;48.084;17.272;2023-05-07T01:37:20;9.82;;;8.43;;
62610;SDS011;48683;48.084;17.272;2023-05-07T01:42:13;9.03;;;8.20;;
62610;SDS011;48683;48.084;17.272;2023-05-07T01:44:38;9.82;;;8.63;;
62610;SDS011;48683;48.084;17.272;2023-05-07T01:47:04;13.43;;;9.63;;
62610;SDS011;48683;48.084;17.272;2023-05-07T01:49:31;12.88;;;9.90;;
62610;SDS011;48683;48.084;17.272;2023-05-07T01:51:57;10.50;;;9.27;;
62610;SDS011;48683;48.084;17.272;2023-05-07T01:54:26;9.75;;;8.77;;
62610;SDS011;48683;48.084;17.272;2023-05-07T01:56:58;11.55;;;7.65;;
62610;SDS011;48683;48.084;17.272;2023-05-07T01:59:23;7.43;;;6.72;;
62610;SDS011;48683;48.084;17.272;2023-05-07T02:01:49;7.68;;;7.03;;
62610;SDS011;48683;48.084;17.272;2023-05-07T02:04:14;8.57;;;7.78;;
62610;SDS011;48683;48.084;17.272;2023-05-07T02:07:00;9.55;;;8.55;;
62610;SDS011;48683;48.084;17.272;2023-05-07T02:09:25;9.30;;;8.40;;
62610;SDS011;48683;48.084;17.272;2023-05-07T02:11:50;9.95;;;8.48;;
62610;SDS011;48683;48.084;17.272;2023-05-07T02:14:16;9.55;;;8.45;;
62610;SDS011;48683;48.084;17.272;2023-05-07T02:16:41;6.88;;;6.28;;
62610;SDS011;48683;48.084;17.272;2023-05-07T02:19:07;11.73;;;9.93;;
62610;SDS011;48683;48.084;17.272;2023-05-07T02:21:32;7.82;;;6.68;;
62610;SDS011;48683;48.084;17.272;2023-05-07T02:23:57;7.65;;;6.68;;
62610;SDS011;48683;48.084;17.272;2023-05-07T02:26:23;11.77;;;8.00;;
62610;SDS011;48683;48.084;17.272;2023-05-07T02:28:48;9.07;;;8.23;;
62610;SDS011;48683;48.084;17.272;2023-05-07T02:31:13;8.73;;;7.85;;
62610;SDS011;48683;48.084;17.272;2023-05-07T02:33:39;8.45;;;6.75;;
62610;SDS011;48683;48.084;17.272;2023-05-07T02:36:08;9.15;;;8.18;;
62610;SDS011;48683;48.084;17.272;2023-05-07T02:38:34;8.93;;;7.97;;
62610;SDS011;48683;48.084;17.272;2023-05-07T02:40:59;11.05;;;9.10;;
62610;SDS011;48683;48.084;17.272;2023-05-07T02:43:25;12.02;;;9.30;;
62610;SDS011;48683;48.084;17.272;2023-05-07T02:45:59;11.15;;;9.98;;
62610;SDS011;48683;48.084;17.272;2023-05-07T02:48:26;12.13;;;10.60;;
62610;SDS011;48683;48.084;17.272;2023-05-07T02:50:51;11.60;;;10.50;;
62610;SDS011;48683;48.084;17.272;2023-05-07T02:53:17;10.20;;;9.30;;
62610;SDS011;48683;48.084;17.272;2023-05-07T02:55:42;10.73;;;9.13;;
62610;SDS011;48683;48.084;17.272;2023-05-07T02:58:07;12.40;;;9.43;;
62610;SDS011;48683;48.084;17.272;2023-05-07T03:00:33;7.40;;;6.70;;
62610;SDS011;48683;48.084;17.272;2023-05-07T03:02:58;7.53;;;6.82;;
62610;SDS011;48683;48.084;17.272;2023-05-07T03:05:23;7.85;;;7.13;;
62610;SDS011;48683;48.084;17.272;2023-05-07T03:07:49;8.68;;;7.60;;
62610;SDS011;48683;48.084;17.272;2023-05-07T03:10:14;9.63;;;8.05;;
62610;SDS011;48683;48.084;17.272;2023-05-07T03:12:40;9.38;;;8.02;;
62610;SDS011;48683;48.084;17.272;2023-05-07T03:15:05;16.30;;;9.02;;
62610;SDS011;48683;48.084;17.272;2023-05-07T03:17:31;7.40;;;6.38;;
62610;SDS011;48683;48.084;17.272;2023-05-07T03:19:56;7.82;;;7.13;;
62610;SDS011;48683;48.084;17.272;2023-05-07T03:22:22;9.50;;;7.93;;
62610;SDS011;48683;48.084;17.272;2023-05-07T03:24:47;15.95;;;8.25;;
62610;SDS011;48683;48.084;17.272;2023-05-07T03:27:12;12.20;;;9.38;;
62610;SDS011;48683;48.084;17.272;2023-05-07T03:29:38;9.55;;;8.55;;
62610;SDS011;48683;48.084;17.272;2023-05-07T03:32:03;10.70;;;8.95;;
62610;SDS011;48683;48.084;17.272;2023-05-07T03:34:29;8.90;;;8.00;;
62610;SDS011;48683;48.084;17.272;2023-05-07T03:36:54;10.40;;;9.35;;
62610;SDS011;48683;48.084;17.272;2023-05-07T03:39:20;10.23;;;9.18;;
62610;SDS011;48683;48.084;17.272;2023-05-07T03:41:46;9.23;;;5.80;;
62610;SDS011;48683;48.084;17.272;2023-05-07T03:44:11;63.03;;;6.82;;
62610;SDS011;48683;48.084;17.272;2023-05-07T03:46:36;25.90;;;9.43;;
62610;SDS011;48683;48.084;17.272;2023-05-07T03:49:02;12.20;;;9.23;;
62610;SDS011;48683;48.084;17.272;2023-05-07T03:51:27;10.20;;;8.43;;
62610;SDS011;48683;48.084;17.272;2023-05-07T03:53:52;9.45;;;8.50;;
62610;SDS011;48683;48.084;17.272;2023-05-07T03:56:18;12.95;;;11.55;;
62610;SDS011;48683;48.084;17.272;2023-05-07T03:58:44;12.75;;;10.35;;
62610;SDS011;48683;48.084;17.272;2023-05-07T04:01:09;13.07;;;11.77;;
62610;SDS011;48683;48.084;17.272;2023-05-07T04:03:35;11.07;;;9.77;;
62610;SDS011;48683;48.084;17.272;2023-05-07T04:06:01;13.70;;;11.88;;
62610;SDS011;48683;48.084;17.272;2023-05-07T04:08:26;9.73;;;8.55;;
62610;SDS011;48683;48.084;17.272;2023-05-07T04:10:58;11.65;;;10.50;;
62610;SDS011;48683;48.084;17.272;2023-05-07T04:13:24;10.38;;;9.25;;
62610;SDS011;48683;48.084;17.272;2023-05-07T04:15:50;12.38;;;10.20;;
62610;SDS011;48683;48.084;17.272;2023-05-07T04:18:16;10.83;;;9.77;;
62610;SDS011;48683;48.084;17.272;2023-05-07T04:20:41;12.45;;;11.00;;
62610;SDS011;48683;48.084;17.272;2023-05-07T04:23:07;14.77;;;13.27;;
62610;SDS011;48683;48.084;17.272;2023-05-07T04:25:33;15.35;;;12.30;;
62610;SDS011;48683;48.084;17.272;2023-05-07T04:27:58;15.02;;;12.82;;
62610;SDS011;48683;48.084;17.272;2023-05-07T04:30:24;15.57;;;13.18;;
62610;SDS011;48683;48.084;17.272;2023-05-07T04:32:49;15.27;;;13.10;;
62610;SDS011;48683;48.084;17.272;2023-05-07T04:35:15;16.02;;;14.05;;
62610;SDS011;48683;48.084;17.272;2023-05-07T04:37:40;17.17;;;12.45;;
62610;SDS011;48683;48.084;17.272;2023-05-07T04:40:06;11.55;;;10.35;;
62610;SDS011;48683;48.084;17.272;2023-05-07T04:42:32;12.50;;;10.53;;
62610;SDS011;48683;48.084;17.272;2023-05-07T04:44:57;11.48;;;9.85;;
62610;SDS011;48683;48.084;17.272;2023-05-07T04:47:23;12.68;;;10.85;;
62610;SDS011;48683;48.084;17.272;2023-05-07T04:49:48;11.38;;;10.20;;
62610;SDS011;48683;48.084;17.272;2023-05-07T04:52:14;12.50;;;11.18;;
62610;SDS011;48683;48.084;17.272;2023-05-07T04:54:40;13.48;;;10.45;;
62610;SDS011;48683;48.084;17.272;2023-05-07T04:57:05;14.07;;;12.57;;
62610;SDS011;48683;48.084;17.272;2023-05-07T04:59:31;13.52;;;11.73;;
62610;SDS011;48683;48.084;17.272;2023-05-07T05:01:57;13.57;;;12.13;;
62610;SDS011;48683;48.084;17.272;2023-05-07T05:04:23;13.77;;;12.38;;
62610;SDS011;48683;48.084;17.272;2023-05-07T05:06:48;14.85;;;11.93;;
62610;SDS011;48683;48.084;17.272;2023-05-07T05:09:13;13.80;;;11.75;;
62610;SDS011;48683;48.084;17.272;2023-05-07T05:11:40;14.45;;;12.95;;
62610;SDS011;48683;48.084;17.272;2023-05-07T05:14:05;14.55;;;12.70;;
62610;SDS011;48683;48.084;17.272;2023-05-07T05:16:30;13.90;;;12.23;;
62610;SDS011;48683;48.084;17.272;2023-05-07T05:18:56;16.15;;;12.85;;
62610;SDS011;48683;48.084;17.272;2023-05-07T05:21:21;14.40;;;12.05;;
62610;SDS011;48683;48.084;17.272;2023-05-07T05:23:46;14.02;;;12.00;;
62610;SDS011;48683;48.084;17.272;2023-05-07T05:26:12;13.50;;;11.65;;
62610;SDS011;48683;48.084;17.272;2023-05-07T05:28:37;13.88;;;12.52;;
62610;SDS011;48683;48.084;17.272;2023-05-07T05:31:04;14.05;;;12.65;;
62610;SDS011;48683;48.084;17.272;2023-05-07T05:33:29;15.10;;;12.70;;
62610;SDS011;48683;48.084;17.272;2023-05-07T05:35:55;14.27;;;12.50;;
62610;SDS011;48683;48.084;17.272;2023-05-07T05:38:20;15.48;;;12.93;;
62610;SDS011;48683;48.084;17.272;2023-05-07T05:40:46;14.63;;;13.02;;
62610;SDS011;48683;48.084;17.272;2023-05-07T05:43:11;19.23;;;13.52;;
62610;SDS011;48683;48.084;17.272;2023-05-07T05:45:37;14.57;;;12.98;;
62610;SDS011;48683;48.084;17.272;2023-05-07T05:48:02;14.23;;;12.82;;
62610;SDS011;48683;48.084;17.272;2023-05-07T05:50:28;15.50;;;12.50;;
62610;SDS011;48683;48.084;17.272;2023-05-07T05:52:53;14.88;;;12.50;;
62610;SDS011;48683;48.084;17.272;2023-05-07T05:55:18;13.80;;;12.38;;
62610;SDS011;48683;48.084;17.272;2023-05-07T05:57:44;14.82;;;13.02;;
62610;SDS011;48683;48.084;17.272;2023-05-07T06:00:10;14.55;;;13.05;;
62610;SDS011;48683;48.084;17.272;2023-05-07T06:02:36;15.77;;;12.27;;
62610;SDS011;48683;48.084;17.272;2023-05-07T06:05:01;15.10;;;13.57;;
62610;SDS011;48683;48.084;17.272;2023-05-07T06:07:27;15.98;;;14.32;;
62610;SDS011;48683;48.084;17.272;2023-05-07T06:09:53;16.17;;;14.40;;
62610;SDS011;48683;48.084;17.272;2023-05-07T06:12:18;16.85;;;13.90;;
62610;SDS011;48683;48.084;17.272;2023-05-07T06:14:43;18.52;;;14.35;;
62610;SDS011;48683;48.084;17.272;2023-05-07T06:17:09;15.20;;;13.63;;
62610;SDS011;48683;48.084;17.272;2023-05-07T06:19:34;17.63;;;15.63;;
62610;SDS011;48683;48.084;17.272;2023-05-07T06:22:00;17.03;;;14.33;;
62610;SDS011;48683;48.084;17.272;2023-05-07T06:24:26;20.52;;;15.98;;
62610;SDS011;48683;48.084;17.272;2023-05-07T06:26:52;18.02;;;15.65;;
62610;SDS011;48683;48.084;17.272;2023-05-07T06:29:17;19.92;;;16.85;;
62610;SDS011;48683;48.084;17.272;2023-05-07T06:31:43;17.92;;;16.08;;
62610;SDS011;48683;48.084;17.272;2023-05-07T06:34:08;19.75;;;16.65;;
62610;SDS011;48683;48.084;17.272;2023-05-07T06:36:34;20.73;;;17.42;;
62610;SDS011;48683;48.084;17.272;2023-05-07T06:38:59;18.48;;;16.48;;
62610;SDS011;48683;48.084;17.272;2023-05-07T06:41:25;18.47;;;16.23;;
62610;SDS011;48683;48.084;17.272;2023-05-07T06:43:50;18.65;;;16.63;;
62610;SDS011;48683;48.084;17.272;2023-05-07T06:46:16;16.87;;;15.07;;
62610;SDS011;48683;48.084;17.272;2023-05-07T06:48:41;16.97;;;14.97;;
62610;SDS011;48683;48.084;17.272;2023-05-07T06:51:06;18.10;;;15.38;;
62610;SDS011;48683;48.084;17.272;2023-05-07T06:53:32;17.83;;;15.97;;
62610;SDS011;48683;48.084;17.272;2023-05-07T06:56:17;18.13;;;15.93;;
62610;SDS011;48683;48.084;17.272;2023-05-07T06:58:42;17.03;;;15.23;;
62610;SDS011;48683;48.084;17.272;2023-05-07T07:01:08;18.97;;;16.70;;
62610;SDS011;48683;48.084;17.272;2023-05-07T07:03:33;17.97;;;15.60;;
62610;SDS011;48683;48.084;17.272;2023-05-07T07:05:58;16.73;;;14.97;;
62610;SDS011;48683;48.084;17.272;2023-05-07T07:08:24;18.17;;;15.87;;
62610;SDS011;48683;48.084;17.272;2023-05-07T07:10:49;19.30;;;16.90;;
62610;SDS011;48683;48.084;17.272;2023-05-07T07:13:14;18.53;;;16.73;;
62610;SDS011;48683;48.084;17.272;2023-05-07T07:15:40;19.27;;;16.93;;
62610;SDS011;48683;48.084;17.272;2023-05-07T07:18:06;19.07;;;17.20;;
62610;SDS011;48683;48.084;17.272;2023-05-07T07:20:31;18.13;;;16.23;;
62610;SDS011;48683;48.084;17.272;2023-05-07T07:22:57;19.93;;;17.93;;
62610;SDS011;48683;48.084;17.272;2023-05-07T07:25:22;21.63;;;19.53;;
62610;SDS011;48683;48.084;17.272;2023-05-07T07:27:48;21.57;;;19.23;;
62610;SDS011;48683;48.084;17.272;2023-05-07T07:30:14;21.67;;;19.48;;
62610;SDS011;48683;48.084;17.272;2023-05-07T07:32:40;22.07;;;19.77;;
62610;SDS011;48683;48.084;17.272;2023-05-07T07:35:05;25.67;;;22.90;;
62610;SDS011;48683;48.084;17.272;2023-05-07T07:37:31;25.97;;;21.83;;
62610;SDS011;48683;48.084;17.272;2023-05-07T07:39:56;25.40;;;21.60;;
62610;SDS011;48683;48.084;17.272;2023-05-07T07:42:21;28.07;;;25.07;;
62610;SDS011;48683;48.084;17.272;2023-05-07T07:44:47;29.23;;;26.17;;
62610;SDS011;48683;48.084;17.272;2023-05-07T07:47:13;26.98;;;24.08;;
62610;SDS011;48683;48.084;17.272;2023-05-07T07:49:38;28.87;;;25.77;;
62610;SDS011;48683;48.084;17.272;2023-05-07T07:52:04;29.33;;;26.23;;
62610;SDS011;48683;48.084;17.272;2023-05-07T07:54:29;30.67;;;27.50;;
62610;SDS011;48683;48.084;17.272;2023-05-07T07:56:55;29.43;;;26.43;;
62610;SDS011;48683;48.084;17.272;2023-05-07T07:59:20;27.67;;;24.70;;
62610;SDS011;48683;48.084;17.272;2023-05-07T08:01:45;27.70;;;24.90;;
62610;SDS011;48683;48.084;17.272;2023-05-07T08:04:13;29.08;;;26.17;;
62610;SDS011;48683;48.084;17.272;2023-05-07T08:06:38;27.10;;;24.27;;
62610;SDS011;48683;48.084;17.272;2023-05-07T08:09:03;27.07;;;24.27;;
62610;SDS011;48683;48.084;17.272;2023-05-07T08:11:29;29.00;;;26.10;;
62610;SDS011;48683;48.084;17.272;2023-05-07T08:13:54;27.77;;;24.87;;
62610;SDS011;48683;48.084;17.272;2023-05-07T08:16:20;31.93;;;27.30;;
62610;SDS011;48683;48.084;17.272;2023-05-07T08:18:45;26.77;;;24.07;;
62610;SDS011;48683;48.084;17.272;2023-05-07T08:21:11;26.93;;;24.33;;
62610;SDS011;48683;48.084;17.272;2023-05-07T08:23:36;23.10;;;20.90;;
62610;SDS011;48683;48.084;17.272;2023-05-07T08:26:01;23.10;;;20.60;;
62610;SDS011;48683;48.084;17.272;2023-05-07T08:28:27;21.70;;;19.60;;
62610;SDS011;48683;48.084;17.272;2023-05-07T08:30:52;27.53;;;24.73;;
62610;SDS011;48683;48.084;17.272;2023-05-07T08:33:18;29.77;;;26.43;;
62610;SDS011;48683;48.084;17.272;2023-05-07T08:35:43;25.30;;;22.63;;
62610;SDS011;48683;48.084;17.272;2023-05-07T08:38:08;17.23;;;15.63;;
62610;SDS011;48683;48.084;17.272;2023-05-07T08:40:36;22.70;;;20.40;;
62610;SDS011;48683;48.084;17.272;2023-05-07T08:43:04;24.45;;;22.05;;
62610;SDS011;48683;48.084;17.272;2023-05-07T08:45:30;23.73;;;21.20;;
62610;SDS011;48683;48.084;17.272;2023-05-07T08:48:00;22.08;;;19.65;;
62610;SDS011;48683;48.084;17.272;2023-05-07T08:50:28;18.33;;;16.35;;
62610;SDS011;48683;48.084;17.272;2023-05-07T08:52:53;17.53;;;15.53;;
62610;SDS011;48683;48.084;17.272;2023-05-07T08:55:18;18.87;;;15.10;;
62610;SDS011;48683;48.084;17.272;2023-05-07T08:57:45;17.25;;;15.45;;
62610;SDS011;48683;48.084;17.272;2023-05-07T09:00:10;17.60;;;15.03;;
62610;SDS011;48683;48.084;17.272;2023-05-07T09:02:36;16.92;;;14.98;;
62610;SDS011;48683;48.084;17.272;2023-05-07T09:05:02;19.47;;;17.37;;
62610;SDS011;48683;48.084;17.272;2023-05-07T09:07:28;20.05;;;18.05;;
62610;SDS011;48683;48.084;17.272;2023-05-07T09:12:22;19.90;;;17.90;;
62610;SDS011;48683;48.084;17.272;2023-05-07T09:14:47;21.50;;;19.27;;
62610;SDS011;48683;48.084;17.272;2023-05-07T09:17:13;20.70;;;18.70;;
62610;SDS011;48683;48.084;17.272;2023-05-07T09:19:40;21.08;;;18.70;;
62610;SDS011;48683;48.084;17.272;2023-05-07T09:22:05;19.80;;;17.80;;
62610;SDS011;48683;48.084;17.272;2023-05-07T09:24:34;29.95;;;26.95;;
62610;SDS011;48683;48.084;17.272;2023-05-07T09:27:01;33.45;;;30.30;;
62610;SDS011;48683;48.084;17.272;2023-05-07T09:29:27;33.33;;;30.30;;
62610;SDS011;48683;48.084;17.272;2023-05-07T09:32:00;33.72;;;30.52;;
62610;SDS011;48683;48.084;17.272;2023-05-07T09:34:27;35.42;;;31.80;;
62610;SDS011;48683;48.084;17.272;2023-05-07T09:36:52;33.03;;;29.70;;
62610;SDS011;48683;48.084;17.272;2023-05-07T09:39:18;28.85;;;26.15;;
62610;SDS011;48683;48.084;17.272;2023-05-07T09:41:45;27.37;;;24.67;;
62610;SDS011;48683;48.084;17.272;2023-05-07T09:44:14;24.15;;;21.75;;
62610;SDS011;48683;48.084;17.272;2023-05-07T09:46:41;23.00;;;20.80;;
62610;SDS011;48683;48.084;17.272;2023-05-07T09:49:09;18.52;;;16.73;;
62610;SDS011;48683;48.084;17.272;2023-05-07T09:51:57;19.38;;;16.80;;
62610;SDS011;48683;48.084;17.272;2023-05-07T09:54:25;17.95;;;16.27;;
62610;SDS011;48683;48.084;17.272;2023-05-07T09:56:51;16.47;;;14.77;;
62610;SDS011;48683;48.084;17.272;2023-05-07T09:59:17;15.32;;;13.65;;
62610;SDS011;48683;48.084;17.272;2023-05-07T10:01:45;14.80;;;13.40;;
62610;SDS011;48683;48.084;17.272;2023-05-07T10:04:11;14.20;;;12.90;;
62610;SDS011;48683;48.084;17.272;2023-05-07T10:06:37;14.82;;;13.32;;
62610;SDS011;48683;48.084;17.272;2023-05-07T10:09:03;15.18;;;13.63;;
62610;SDS011;48683;48.084;17.272;2023-05-07T10:11:32;14.32;;;12.85;;
62610;SDS011;48683;48.084;17.272;2023-05-07T10:14:02;13.82;;;12.52;;
62610;SDS011;48683;48.084;17.272;2023-05-07T10:16:31;15.18;;;13.57;;
62610;SDS011;48683;48.084;17.272;2023-05-07T10:18:58;14.38;;;12.98;;
62610;SDS011;48683;48.084;17.272;2023-05-07T10:21:23;13.50;;;11.73;;
62610;SDS011;48683;48.084;17.272;2023-05-07T10:24:10;13.57;;;12.33;;
62610;SDS011;48683;48.084;17.272;2023-05-07T10:26:52;13.40;;;12.15;;
62610;SDS011;48683;48.084;17.272;2023-05-07T10:32:16;14.00;;;12.00;;
62610;SDS011;48683;48.084;17.272;2023-05-07T10:35:05;11.95;;;10.85;;
62610;SDS011;48683;48.084;17.272;2023-05-07T10:37:39;12.45;;;11.20;;
62610;SDS011;48683;48.084;17.272;2023-05-07T10:40:05;12.65;;;11.35;;
62610;SDS011;48683;48.084;17.272;2023-05-07T10:42:32;12.40;;;11.20;;
62610;SDS011;48683;48.084;17.272;2023-05-07T10:44:57;12.20;;;11.10;;
62610;SDS011;48683;48.084;17.272;2023-05-07T10:47:23;15.07;;;10.53;;
62610;SDS011;48683;48.084;17.272;2023-05-07T10:54:40;11.73;;;10.63;;
62610;SDS011;48683;48.084;17.272;2023-05-07T10:59:57;8.73;;;7.80;;
62610;SDS011;48683;48.084;17.272;2023-05-07T11:02:22;9.87;;;8.97;;
62610;SDS011;48683;48.084;17.272;2023-05-07T11:08:07;8.38;;;6.82;;
62610;SDS011;48683;48.084;17.272;2023-05-07T11:13:41;7.20;;;6.22;;
62610;SDS011;48683;48.084;17.272;2023-05-07T11:16:19;9.73;;;6.28;;
62610;SDS011;48683;48.084;17.272;2023-05-07T11:18:47;16.13;;;7.32;;
62610;SDS011;48683;48.084;17.272;2023-05-07T11:21:31;9.73;;;6.65;;
62610;SDS011;48683;48.084;17.272;2023-05-07T11:24:07;7.75;;;6.30;;
62610;SDS011;48683;48.084;17.272;2023-05-07T11:26:43;8.40;;;6.60;;
62610;SDS011;48683;48.084;17.272;2023-05-07T11:29:11;7.70;;;6.70;;
62610;SDS011;48683;48.084;17.272;2023-05-07T11:31:39;7.10;;;6.22;;
62610;SDS011;48683;48.084;17.272;2023-05-07T11:34:05;7.23;;;6.47;;
62610;SDS011;48683;48.084;17.272;2023-05-07T11:36:31;9.98;;;6.18;;
62610;SDS011;48683;48.084;17.272;2023-05-07T11:38:57;7.05;;;6.35;;
62610;SDS011;48683;48.084;17.272;2023-05-07T11:41:22;5.80;;;5.30;;
62610;SDS011;48683;48.084;17.272;2023-05-07T11:43:59;6.27;;;5.60;;
62610;SDS011;48683;48.084;17.272;2023-05-07T11:46:24;6.20;;;5.65;;
62610;SDS011;48683;48.084;17.272;2023-05-07T11:48:50;5.73;;;4.83;;
62610;SDS011;48683;48.084;17.272;2023-05-07T11:51:18;8.80;;;5.67;;
62610;SDS011;48683;48.084;17.272;2023-05-07T11:53:45;5.70;;;5.03;;
62610;SDS011;48683;48.084;17.272;2023-05-07T11:56:11;6.07;;;5.40;;
62610;SDS011;48683;48.084;17.272;2023-05-07T11:58:38;8.98;;;5.72;;
62610;SDS011;48683;48.084;17.272;2023-05-07T12:03:32;6.82;;;5.80;;
62610;SDS011;48683;48.084;17.272;2023-05-07T12:05:57;7.53;;;6.00;;
62610;SDS011;48683;48.084;17.272;2023-05-07T12:08:24;8.38;;;6.13;;
62610;SDS011;48683;48.084;17.272;2023-05-07T12:10:50;6.67;;;5.53;;
62610;SDS011;48683;48.084;17.272;2023-05-07T12:13:16;6.25;;;5.65;;
62610;SDS011;48683;48.084;17.272;2023-05-07T12:15:45;7.15;;;6.45;;
62610;SDS011;48683;48.084;17.272;2023-05-07T12:18:11;6.87;;;6.17;;
62610;SDS011;48683;48.084;17.272;2023-05-07T12:20:37;12.32;;;6.50;;
62610;SDS011;48683;48.084;17.272;2023-05-07T12:23:03;7.63;;;5.45;;
62610;SDS011;48683;48.084;17.272;2023-05-07T12:25:30;5.70;;;5.20;;
62610;SDS011;48683;48.084;17.272;2023-05-07T12:27:56;5.60;;;5.10;;
62610;SDS011;48683;48.084;17.272;2023-05-07T12:30:23;6.03;;;4.93;;
62610;SDS011;48683;48.084;17.272;2023-05-07T12:32:52;5.90;;;4.77;;
62610;SDS011;48683;48.084;17.272;2023-05-07T12:35:26;5.75;;;4.25;;
62610;SDS011;48683;48.084;17.272;2023-05-07T12:37:58;4.95;;;4.50;;
62610;SDS011;48683;48.084;17.272;2023-05-07T12:40:41;6.60;;;4.55;;
62610;SDS011;48683;48.084;17.272;2023-05-07T12:45:44;4.68;;;3.60;;
62610;SDS011;48683;48.084;17.272;2023-05-07T12:48:11;4.93;;;3.72;;
62610;SDS011;48683;48.084;17.272;2023-05-07T12:50:37;3.97;;;3.58;;
62610;SDS011;48683;48.084;17.272;2023-05-07T12:53:03;3.90;;;3.50;;
62610;SDS011;48683;48.084;17.272;2023-05-07T12:55:31;4.40;;;3.78;;
62610;SDS011;48683;48.084;17.272;2023-05-07T12:57:57;3.55;;;3.25;;
62610;SDS011;48683;48.084;17.272;2023-05-07T13:00:36;4.47;;;3.25;;
62610;SDS011;48683;48.084;17.272;2023-05-07T13:03:02;3.50;;;3.20;;
62610;SDS011;48683;48.084;17.272;2023-05-07T13:05:28;5.23;;;4.00;;
62610;SDS011;48683;48.084;17.272;2023-05-07T13:07:53;4.33;;;3.47;;
62610;SDS011;48683;48.084;17.272;2023-05-07T13:10:22;3.50;;;3.20;;
62610;SDS011;48683;48.084;17.272;2023-05-07T13:12:48;3.63;;;3.30;;
62610;SDS011;48683;48.084;17.272;2023-05-07T13:15:14;3.60;;;3.30;;
62610;SDS011;48683;48.084;17.272;2023-05-07T13:17:40;3.77;;;3.40;;
62610;SDS011;48683;48.084;17.272;2023-05-07T13:20:05;2.87;;;2.67;;
62610;SDS011;48683;48.084;17.272;2023-05-07T13:22:33;3.15;;;2.85;;
62610;SDS011;48683;48.084;17.272;2023-05-07T13:24:58;5.57;;;3.20;;
62610;SDS011;48683;48.084;17.272;2023-05-07T13:27:23;3.47;;;3.03;;
62610;SDS011;48683;48.084;17.272;2023-05-07T13:29:49;3.13;;;2.80;;
62610;SDS011;48683;48.084;17.272;2023-05-07T13:32:14;5.03;;;3.03;;
62610;SDS011;48683;48.084;17.272;2023-05-07T13:34:39;3.27;;;2.70;;
62610;SDS011;48683;48.084;17.272;2023-05-07T13:37:05;6.00;;;2.77;;
62610;SDS011;48683;48.084;17.272;2023-05-07T13:39:32;5.32;;;3.20;;
62610;SDS011;48683;48.084;17.272;2023-05-07T13:41:58;2.87;;;2.67;;
62610;SDS011;48683;48.084;17.272;2023-05-07T13:44:23;5.90;;;2.67;;
62610;SDS011;48683;48.084;17.272;2023-05-07T13:46:48;3.00;;;2.70;;
62610;SDS011;48683;48.084;17.272;2023-05-07T13:49:13;3.07;;;2.87;;
62610;SDS011;48683;48.084;17.272;2023-05-07T13:51:39;4.40;;;2.73;;
62610;SDS011;48683;48.084;17.272;2023-05-07T13:54:04;4.07;;;2.80;;
62610;SDS011;48683;48.084;17.272;2023-05-07T13:56:30;2.87;;;2.67;;
62610;SDS011;48683;48.084;17.272;2023-05-07T13:58:57;2.67;;;2.33;;
62610;SDS011;48683;48.084;17.272;2023-05-07T14:01:22;2.93;;;2.60;;
62610;SDS011;48683;48.084;17.272;2023-05-07T14:03:48;6.20;;;2.77;;
62610;SDS011;48683;48.084;17.272;2023-05-07T14:06:13;3.30;;;2.80;;
62610;SDS011;48683;48.084;17.272;2023-05-07T14:08:41;4.53;;;2.30;;
62610;SDS011;48683;48.084;17.272;2023-05-07T14:11:06;3.67;;;2.47;;
62610;SDS011;48683;48.084;17.272;2023-05-07T14:13:31;3.23;;;2.90;;
62610;SDS011;48683;48.084;17.272;2023-05-07T14:15:57;3.27;;;2.43;;
62610;SDS011;48683;48.084;17.272;2023-05-07T14:18:23;2.63;;;2.40;;
62610;SDS011;48683;48.084;17.272;2023-05-07T14:20:48;4.20;;;2.57;;
62610;SDS011;48683;48.084;17.272;2023-05-07T14:23:14;3.13;;;2.73;;
62610;SDS011;48683;48.084;17.272;2023-05-07T14:25:40;2.97;;;2.40;;
62610;SDS011;48683;48.084;17.272;2023-05-07T14:28:06;2.57;;;2.37;;
62610;SDS011;48683;48.084;17.272;2023-05-07T14:30:31;2.70;;;2.40;;
62610;SDS011;48683;48.084;17.272;2023-05-07T14:32:56;2.83;;;2.23;;
62610;SDS011;48683;48.084;17.272;2023-05-07T14:35:22;2.90;;;2.40;;
62610;SDS011;48683;48.084;17.272;2023-05-07T14:37:47;2.80;;;2.50;;
62610;SDS011;48683;48.084;17.272;2023-05-07T14:40:12;2.40;;;2.20;;
62610;SDS011;48683;48.084;17.272;2023-05-07T14:45:04;6.50;;;2.10;;
62610;SDS011;48683;48.084;17.272;2023-05-07T14:47:30;9.60;;;3.17;;
62610;SDS011;48683;48.084;17.272;2023-05-07T14:49:55;2.97;;;2.60;;
62610;SDS011;48683;48.084;17.272;2023-05-07T14:52:22;3.40;;;2.83;;